createdAt,value
2024-05-09T00:04:43.913Z,95.9
2024-05-09T00:11:41.937Z,94.7
2024-05-09T00:18:44.421Z,95.2
2024-05-09T00:25:38.285Z,96.3
2024-05-09T00:33:11.649Z,96.1
2024-05-09T00:40:50.132Z,95.9
2024-05-09T00:47:49.750Z,94.2
2024-05-09T00:55:00.167Z,97.8
2024-05-09T01:02:01.339Z,95.8
2024-05-09T01:09:07.757Z,95.1
2024-05-09T01:16:09.782Z,97.6
2024-05-09T01:23:21.716Z,95.8
2024-05-09T01:30:17.155Z,95.8
2024-05-09T01:37:23.098Z,96.1
2024-05-09T01:44:26.138Z,95.5
2024-05-09T01:51:44.684Z,94.6
2024-05-09T01:58:38.454Z,95.4
2024-05-09T02:05:32.618Z,93.9
2024-05-09T02:12:31.142Z,94.4
2024-05-09T02:19:45.278Z,94.6
2024-05-09T02:27:01.832Z,93.5
2024-05-09T02:34:09.298Z,96.1
2024-05-09T02:41:06.949Z,97.2
2024-05-09T02:48:20.017Z,93.6
2024-05-09T02:55:19.388Z,95.9
2024-05-09T03:02:23.443Z,94.3
2024-05-09T03:09:36.606Z,95.2
2024-05-09T03:17:26.116Z,93.5
2024-05-09T03:24:24.379Z,93.8
2024-05-09T03:31:29.911Z,94.3
2024-05-09T03:38:31.137Z,94.1
2024-05-09T03:45:42.981Z,95.4
2024-05-09T03:53:42.392Z,94.7
2024-05-09T04:01:14.799Z,93.1
2024-05-09T04:09:47.362Z,95
2024-05-09T04:17:22.321Z,93.6
2024-05-09T04:25:20.098Z,94.8
2024-05-09T04:32:08.649Z,93.1
2024-05-09T04:39:00.251Z,92.9
2024-05-09T04:46:09.021Z,93.9
2024-05-09T04:53:21.563Z,94.2
2024-05-09T05:00:55.163Z,94.6
2024-05-09T05:08:02.778Z,94
2024-05-09T05:15:17.340Z,94.6
2024-05-09T05:22:18.310Z,96.7
2024-05-09T05:29:13.413Z,96.5
2024-05-09T05:36:10.811Z,98.4
2024-05-09T05:43:30.081Z,96.9
2024-05-09T05:50:27.207Z,97.3
2024-05-09T05:57:32.537Z,97
2024-05-09T06:04:26.943Z,97.4
2024-05-09T06:11:22.433Z,98.1
2024-05-09T06:18:50.691Z,97.9
2024-05-09T06:26:13.002Z,98.4
2024-05-09T06:33:15.442Z,100
2024-05-09T06:40:09.928Z,100
2024-05-09T06:47:24.159Z,100
2024-05-09T06:54:29.529Z,100
2024-05-09T07:01:24.082Z,100
2024-05-09T07:08:24.185Z,100
2024-05-09T07:15:30.338Z,99
2024-05-09T07:22:36.758Z,99.8
2024-05-09T07:31:39.107Z,100
2024-05-09T07:38:38.758Z,99.2
2024-05-09T07:46:28.540Z,98.6
2024-05-09T07:59:36.042Z,99.4
2024-05-09T08:06:35.977Z,96.9
2024-05-09T08:13:46.734Z,97.7
2024-05-09T08:20:45.362Z,95.7
2024-05-09T08:27:30.695Z,94.8
2024-05-09T08:34:41.170Z,92.9
2024-05-09T08:42:03.163Z,92.8
2024-05-09T08:49:08.024Z,92
2024-05-09T08:56:08.142Z,89.8
2024-05-09T09:02:59.752Z,87.6
2024-05-09T09:09:56.298Z,86.4
2024-05-09T09:17:04.169Z,85.8
2024-05-09T09:24:06.490Z,84.5
2024-05-09T09:31:05.395Z,81.6
2024-05-09T09:38:05.252Z,81.7
2024-05-09T09:45:16.957Z,77.3
2024-05-09T09:52:22.763Z,75.8
2024-05-09T09:59:29.737Z,62.9
2024-05-09T10:06:28.578Z,65.8
2024-05-09T10:13:25.577Z,67.9
2024-05-09T10:19:50.895Z,63.8
2024-05-09T10:26:54.696Z,64.6
2024-05-09T10:33:39.835Z,64.1
2024-05-09T10:40:34.513Z,61.5
2024-05-09T10:47:09.632Z,56.9
2024-05-09T10:54:22.998Z,55.7
2024-05-09T11:01:03.353Z,54
2024-05-09T11:08:01.429Z,53.3
2024-05-09T11:14:53.038Z,53.9
2024-05-09T11:21:42.948Z,52.8
2024-05-09T11:28:45.758Z,51.9
2024-05-09T11:35:45.859Z,51.4
2024-05-09T11:42:40.327Z,51.2
2024-05-09T11:50:00.894Z,49.8
2024-05-09T11:57:17.469Z,49.6
2024-05-09T12:11:42.356Z,52.4
2024-05-09T12:18:51.332Z,52.3
2024-05-09T12:26:31.089Z,50.9
2024-05-09T12:34:03.339Z,48.3
2024-05-09T12:41:31.983Z,48.6
2024-05-09T12:49:00.693Z,47.4
2024-05-09T12:56:14.513Z,48.9
2024-05-09T13:03:10.696Z,46.2
2024-05-09T13:10:11.766Z,47.1
2024-05-09T13:17:20.910Z,47.3
2024-05-09T13:24:25.754Z,46.5
2024-05-09T13:31:35.614Z,45.4
2024-05-09T13:38:35.177Z,44.6
2024-05-09T13:45:33.572Z,45.4
2024-05-09T13:52:36.990Z,45.3
2024-05-09T13:59:43.655Z,46.3
2024-05-09T14:07:21.069Z,46.8
2024-05-09T14:14:29.395Z,47
2024-05-09T14:21:40.399Z,47.5
2024-05-09T14:28:41.132Z,48.8
2024-05-09T14:35:36.631Z,46.7
2024-05-09T14:42:42.062Z,48.5
2024-05-09T14:49:48.698Z,49.5
2024-05-09T14:57:04.213Z,49.8
2024-05-09T15:04:05.408Z,49.6
2024-05-09T15:11:04.802Z,48.3
2024-05-09T15:18:20.484Z,46.2
2024-05-09T15:25:23.195Z,46.4
2024-05-09T15:32:19.156Z,46.1
2024-05-09T15:39:12.832Z,48.1
2024-05-09T15:46:06.114Z,47.6
2024-05-09T15:53:02.404Z,47.9
2024-05-09T16:00:47.095Z,49.3
2024-05-09T16:07:42.578Z,48.7
2024-05-09T16:14:52.488Z,50
2024-05-09T16:21:49.287Z,49.9
2024-05-09T16:28:53.583Z,50.1
2024-05-09T16:35:43.700Z,49.8
2024-05-09T16:42:39.970Z,48.9
2024-05-09T16:49:37.040Z,51.1
2024-05-09T16:56:26.427Z,51
2024-05-09T17:03:28.552Z,52.2
2024-05-09T17:10:38.473Z,51.1
2024-05-09T17:17:46.198Z,51.2
2024-05-09T17:24:57.402Z,51.6
2024-05-09T17:31:53.967Z,52.1
2024-05-09T17:38:52.685Z,52.4
2024-05-09T17:45:40.931Z,52.7
2024-05-09T17:52:47.081Z,54.5
2024-05-09T17:59:53.242Z,55.6
2024-05-09T18:07:16.817Z,58
2024-05-09T18:14:18.051Z,59.2
2024-05-09T18:21:16.242Z,58.3
2024-05-09T18:28:17.372Z,59.4
2024-05-09T18:35:16.596Z,61
2024-05-09T18:42:33.727Z,61.6
2024-05-09T18:49:38.368Z,61.8
2024-05-09T18:56:55.558Z,61.8
2024-05-09T19:03:49.648Z,62.5
2024-05-09T19:10:47.395Z,62.9
2024-05-09T19:17:53.526Z,64.4
2024-05-09T19:24:48.741Z,64.7
2024-05-09T19:31:49.024Z,66.8
2024-05-09T19:38:46.853Z,67.6
2024-05-09T19:45:42.995Z,68.8
2024-05-09T19:52:41.119Z,69.4
2024-05-09T19:59:34.679Z,71
2024-05-09T20:06:36.098Z,71.5
2024-05-09T20:13:34.069Z,72.1
2024-05-09T20:20:55.184Z,73.5
2024-05-09T20:27:55.825Z,74.4
2024-05-09T20:34:58.009Z,73.7
2024-05-09T20:42:10.547Z,74.3
2024-05-09T20:49:12.943Z,76.6
2024-05-09T20:56:14.366Z,77
2024-05-09T21:03:15.887Z,76.8
2024-05-09T21:10:35.236Z,77.6
2024-05-09T21:17:37.389Z,80.6
2024-05-09T21:24:29.765Z,78.6
2024-05-09T21:31:31.306Z,78.9
2024-05-09T21:38:44.324Z,80.9
2024-05-09T21:45:45.947Z,78.3
2024-05-09T21:52:41.860Z,79.5
2024-05-09T21:59:39.489Z,80.4
2024-05-09T22:06:54.849Z,81.2
2024-05-09T22:13:50.559Z,80.8
2024-05-09T22:20:53.477Z,82.6
2024-05-09T22:27:44.565Z,84.5
2024-05-09T22:34:58.229Z,86.3
2024-05-09T22:41:52.362Z,84.1
2024-05-09T22:48:49.390Z,83.5
2024-05-09T22:55:47.520Z,83.8
2024-05-09T23:02:49.733Z,85.2
2024-05-09T23:09:40.023Z,84.5
2024-05-09T23:16:55.004Z,86.2
2024-05-09T23:23:48.570Z,84.6
2024-05-09T23:30:51.365Z,84.9
2024-05-09T23:38:04.212Z,84.8
2024-05-09T23:44:58.537Z,83.8
2024-05-09T23:51:58.077Z,84.6
2024-05-09T23:59:02.782Z,85
